Aviation Digital Data Service (ADDS)

Output produced by METARs form (0154 UTC 24 May 2019)
found at http://www.aviationweather.gov/metar/data/
 
LFLC 240130Z AUTO 24001KT CAVOK 13/06 Q1015 NOSIG
TAF LFLC 232000Z 2321/2421 VRB02KT CAVOK 
     BECMG 2408/2410 03012KT 
     TEMPO 2411/2420 SCT060TCU 
     PROB40 
     TEMPO 2416/2419 SHRA BKN055TCU